createdAt,value
2022-07-29T00:00:48.795Z,22.30
2022-07-29T00:03:15.914Z,22.30
2022-07-29T00:05:43.398Z,22.20
2022-07-29T00:08:12.484Z,22.20
2022-07-29T00:10:39.959Z,22.20
2022-07-29T00:13:06.747Z,22.20
2022-07-29T00:15:33.655Z,22.10
2022-07-29T00:18:00.401Z,22.10
2022-07-29T00:20:27.204Z,22.00
2022-07-29T00:22:54.257Z,22.00
2022-07-29T00:25:21.072Z,22.00
2022-07-29T00:27:47.882Z,21.90
2022-07-29T00:30:14.938Z,21.90
2022-07-29T00:32:41.838Z,21.90
2022-07-29T00:35:27.904Z,21.80
2022-07-29T00:37:54.829Z,21.80
2022-07-29T00:40:23.633Z,21.80
2022-07-29T00:42:52.172Z,21.80
2022-07-29T00:45:19.988Z,21.80
2022-07-29T00:47:47.854Z,21.80
2022-07-29T00:50:15.402Z,21.80
2022-07-29T00:52:43.511Z,21.70
2022-07-29T00:55:13.018Z,21.70
2022-07-29T00:57:41.047Z,21.70
2022-07-29T01:00:10.943Z,21.70
2022-07-29T01:02:38.131Z,21.60
2022-07-29T01:05:06.807Z,21.60
2022-07-29T01:07:35.953Z,21.60
2022-07-29T01:10:05.132Z,21.60
2022-07-29T01:12:34.382Z,21.60
2022-07-29T01:15:02.648Z,21.50
2022-07-29T01:17:53.334Z,21.50
2022-07-29T01:20:32.131Z,21.50
2022-07-29T01:23:07.633Z,21.50
2022-07-29T01:26:05.162Z,21.40
2022-07-29T01:28:56.861Z,21.50
2022-07-29T01:31:38.490Z,21.50
2022-07-29T01:34:23.304Z,21.40
2022-07-29T01:36:57.576Z,21.40
2022-07-29T01:39:33.468Z,21.40
2022-07-29T01:42:40.003Z,21.40
2022-07-29T01:45:38.164Z,21.30
2022-07-29T01:48:12.720Z,21.30
2022-07-29T01:50:52.755Z,21.30
2022-07-29T01:53:37.765Z,21.30
2022-07-29T01:56:08.106Z,21.30
2022-07-29T01:58:37.602Z,21.30
2022-07-29T02:01:05.973Z,21.20
2022-07-29T02:03:36.669Z,21.30
2022-07-29T02:06:05.289Z,21.30
2022-07-29T02:08:34.534Z,21.30
2022-07-29T02:11:03.698Z,21.30
2022-07-29T02:13:32.459Z,21.30
2022-07-29T02:16:00.545Z,21.30
2022-07-29T02:18:30.097Z,21.30
2022-07-29T02:20:59.573Z,21.30
2022-07-29T02:23:27.684Z,21.30
2022-07-29T02:25:57.222Z,21.30
2022-07-29T02:28:27.496Z,21.30
2022-07-29T02:31:00.669Z,21.30
2022-07-29T02:33:28.781Z,21.30
2022-07-29T02:35:57.065Z,21.30
2022-07-29T02:38:44.721Z,21.30
2022-07-29T02:41:27.114Z,21.30
2022-07-29T02:44:07.212Z,21.30
2022-07-29T02:46:36.950Z,21.30
2022-07-29T02:49:20.205Z,21.30
2022-07-29T02:51:52.380Z,21.30
2022-07-29T02:54:39.797Z,21.30
2022-07-29T02:57:15.447Z,21.20
2022-07-29T02:59:44.377Z,21.20
2022-07-29T03:02:12.601Z,21.30
2022-07-29T03:04:42.635Z,21.20
2022-07-29T03:07:11.496Z,21.20
2022-07-29T03:09:39.460Z,21.20
2022-07-29T03:12:07.022Z,21.20
2022-07-29T03:14:34.583Z,21.20
2022-07-29T03:17:01.763Z,21.20
2022-07-29T03:19:29.458Z,21.20
2022-07-29T03:21:59.845Z,21.10
2022-07-29T03:24:34.889Z,21.10
2022-07-29T03:27:02.483Z,21.10
2022-07-29T03:29:33.567Z,21.10
2022-07-29T03:32:04.275Z,21.10
2022-07-29T03:34:34.726Z,21.10
2022-07-29T03:37:01.462Z,21.00
2022-07-29T03:39:33.013Z,21.00
2022-07-29T03:42:01.785Z,21.00
2022-07-29T03:44:30.183Z,21.00
2022-07-29T03:47:01.163Z,21.00
2022-07-29T03:49:28.948Z,20.90
2022-07-29T03:51:55.958Z,20.90
2022-07-29T03:54:23.514Z,20.90
2022-07-29T03:56:54.156Z,20.90
2022-07-29T03:59:22.407Z,20.90
2022-07-29T04:01:53.916Z,20.90
2022-07-29T04:04:20.935Z,20.90
2022-07-29T04:06:48.549Z,20.80
2022-07-29T04:09:16.293Z,20.80
2022-07-29T04:12:01.857Z,20.80
2022-07-29T04:14:34.989Z,20.80
2022-07-29T04:17:03.648Z,20.70
2022-07-29T04:19:33.604Z,20.70
2022-07-29T04:22:03.734Z,20.70
2022-07-29T04:24:32.640Z,20.80
2022-07-29T04:26:59.428Z,20.70
2022-07-29T04:29:26.544Z,20.80
2022-07-29T04:31:56.008Z,20.80
2022-07-29T04:34:22.816Z,20.80
2022-07-29T04:36:55.149Z,20.80
2022-07-29T04:39:23.258Z,20.70
2022-07-29T04:41:52.516Z,20.80
2022-07-29T04:44:28.753Z,20.80
2022-07-29T04:47:02.061Z,20.80
2022-07-29T04:49:28.992Z,20.80
2022-07-29T04:52:07.920Z,20.80
2022-07-29T04:54:44.027Z,20.80
2022-07-29T04:57:10.865Z,20.80
2022-07-29T04:59:37.873Z,20.80
2022-07-29T05:02:04.872Z,20.80
2022-07-29T05:04:37.445Z,20.80
2022-07-29T05:07:07.213Z,20.80
2022-07-29T05:09:35.959Z,20.80
2022-07-29T05:12:06.053Z,20.80
2022-07-29T05:14:33.729Z,20.90
2022-07-29T05:17:00.712Z,20.90
2022-07-29T05:19:31.814Z,20.80
2022-07-29T05:21:58.748Z,20.80
2022-07-29T05:24:25.552Z,20.80
2022-07-29T05:26:52.818Z,20.80
2022-07-29T05:29:43.938Z,20.90
2022-07-29T05:32:12.626Z,21.00
2022-07-29T05:34:50.089Z,21.00
2022-07-29T05:37:20.868Z,21.10
2022-07-29T05:39:50.586Z,21.10
2022-07-29T05:42:23.498Z,21.10
2022-07-29T05:44:50.349Z,21.10
2022-07-29T05:47:17.328Z,21.10
2022-07-29T05:49:44.454Z,21.10
2022-07-29T05:52:11.392Z,21.20
2022-07-29T05:54:38.403Z,21.20
2022-07-29T05:57:06.302Z,21.20
2022-07-29T05:59:37.567Z,21.20
2022-07-29T06:02:06.094Z,21.30
2022-07-29T06:04:34.491Z,21.30
2022-07-29T06:07:02.597Z,21.30
2022-07-29T06:09:29.801Z,21.40
2022-07-29T06:11:56.938Z,21.30
2022-07-29T06:14:23.713Z,21.30
2022-07-29T06:16:50.690Z,21.30
2022-07-29T06:19:17.786Z,21.30
2022-07-29T06:21:45.330Z,21.30
2022-07-29T06:24:13.964Z,21.30
2022-07-29T06:26:41.691Z,21.30
2022-07-29T06:29:09.517Z,21.40
2022-07-29T06:31:36.285Z,21.50
2022-07-29T06:34:03.540Z,21.60
2022-07-29T06:36:30.681Z,21.70
2022-07-29T06:38:57.468Z,21.90
2022-07-29T06:41:24.875Z,22.10
2022-07-29T06:43:55.307Z,22.20
2022-07-29T06:46:24.030Z,22.30
2022-07-29T06:48:53.039Z,22.40
2022-07-29T06:51:21.806Z,22.50
2022-07-29T06:53:59.791Z,22.50
2022-07-29T06:56:39.177Z,22.50
2022-07-29T06:59:10.064Z,22.50
2022-07-29T07:01:38.559Z,22.40
2022-07-29T07:04:05.586Z,22.40
2022-07-29T07:06:32.412Z,22.30
2022-07-29T07:08:59.305Z,22.30
2022-07-29T07:11:26.140Z,22.40
2022-07-29T07:13:52.858Z,22.40
2022-07-29T07:16:19.715Z,22.50
2022-07-29T07:18:46.664Z,22.60
2022-07-29T07:21:19.096Z,22.60
2022-07-29T07:23:47.039Z,22.70
2022-07-29T07:26:13.903Z,22.80
2022-07-29T07:28:40.914Z,22.80
2022-07-29T07:31:07.972Z,22.90
2022-07-29T07:33:34.695Z,22.90
2022-07-29T07:36:01.629Z,23.10
2022-07-29T07:38:28.682Z,23.20
2022-07-29T07:40:55.639Z,23.40
2022-07-29T07:43:23.637Z,23.50
2022-07-29T07:45:50.561Z,23.70
2022-07-29T07:48:17.737Z,23.80
2022-07-29T07:50:44.842Z,24.00
2022-07-29T07:53:11.834Z,24.00
2022-07-29T07:58:30.504Z,24.30
2022-07-29T08:00:57.510Z,24.60
2022-07-29T08:03:24.534Z,24.80
2022-07-29T08:05:55.295Z,24.80
2022-07-29T08:08:22.104Z,24.80
2022-07-29T08:10:56.340Z,24.70
2022-07-29T08:13:28.141Z,24.60
2022-07-29T08:15:59.084Z,24.60
2022-07-29T08:18:30.537Z,24.60
2022-07-29T08:20:58.080Z,24.60
2022-07-29T08:23:25.423Z,24.50
2022-07-29T08:25:52.538Z,24.50
2022-07-29T08:28:25.662Z,24.60
2022-07-29T08:30:53.039Z,24.70
2022-07-29T08:33:19.847Z,24.70
2022-07-29T08:35:47.117Z,24.90
2022-07-29T08:38:13.987Z,24.90
2022-07-29T08:40:40.764Z,24.80
2022-07-29T08:43:09.000Z,24.70
2022-07-29T08:45:49.922Z,24.70
2022-07-29T08:48:23.317Z,24.60
2022-07-29T08:50:55.596Z,24.70
2022-07-29T08:53:22.874Z,24.60
2022-07-29T08:55:51.005Z,24.60
2022-07-29T08:58:22.877Z,24.60
2022-07-29T09:00:53.456Z,24.80
2022-07-29T09:03:25.051Z,24.80
2022-07-29T09:05:52.856Z,25.00
2022-07-29T09:08:20.964Z,25.10
2022-07-29T09:10:48.114Z,25.30
2022-07-29T09:13:15.114Z,25.50
2022-07-29T09:15:42.116Z,25.60
2022-07-29T09:18:26.115Z,25.70
2022-07-29T09:21:14.518Z,25.90
2022-07-29T09:23:42.691Z,25.90
2022-07-29T09:26:09.557Z,26.10
2022-07-29T09:28:42.921Z,26.10
2022-07-29T09:31:09.818Z,26.20
2022-07-29T09:33:37.414Z,26.40
2022-07-29T09:36:10.652Z,26.50
2022-07-29T09:38:38.470Z,26.70
2022-07-29T09:41:07.033Z,26.80
2022-07-29T09:43:34.566Z,26.90
2022-07-29T09:46:14.843Z,27.00
2022-07-29T09:48:41.759Z,27.00
2022-07-29T09:51:21.302Z,27.10
2022-07-29T09:53:51.349Z,27.00
2022-07-29T09:56:28.044Z,27.20
2022-07-29T09:59:07.629Z,27.20
2022-07-29T10:01:35.108Z,27.20
2022-07-29T10:04:01.999Z,27.30
2022-07-29T10:06:29.344Z,27.30
2022-07-29T10:08:56.188Z,27.60
2022-07-29T10:11:23.141Z,27.60
2022-07-29T10:13:49.946Z,27.70
2022-07-29T10:16:17.452Z,27.70
2022-07-29T10:18:45.209Z,27.80
2022-07-29T10:21:22.495Z,28.00
2022-07-29T10:24:01.271Z,28.20
2022-07-29T10:26:30.139Z,28.50
2022-07-29T10:28:57.117Z,28.70
2022-07-29T10:31:40.689Z,28.80
2022-07-29T10:34:35.411Z,28.90
2022-07-29T10:37:45.843Z,29.00
2022-07-29T10:41:03.256Z,29.10
2022-07-29T10:43:39.057Z,29.20
2022-07-29T10:46:10.836Z,29.50
2022-07-29T10:49:09.754Z,29.80
2022-07-29T10:54:52.335Z,30.20
2022-07-29T10:57:20.823Z,30.50
2022-07-29T11:00:09.674Z,30.80
2022-07-29T11:05:30.756Z,31.50
2022-07-29T11:08:20.489Z,31.80
2022-07-29T11:10:49.755Z,32.00
2022-07-29T11:13:44.722Z,32.20
2022-07-29T11:16:16.147Z,31.90
2022-07-29T11:19:14.471Z,31.60
2022-07-29T11:21:58.369Z,31.40
2022-07-29T11:24:35.482Z,31.70
2022-07-29T11:27:21.845Z,32.00
2022-07-29T11:29:56.025Z,31.50
2022-07-29T11:32:25.502Z,31.00
2022-07-29T11:35:19.396Z,30.80
2022-07-29T11:38:41.627Z,31.30
2022-07-29T11:41:25.906Z,32.40
2022-07-29T11:43:55.884Z,32.90
2022-07-29T11:46:49.767Z,33.40
2022-07-29T11:49:31.641Z,33.90
2022-07-29T11:52:02.324Z,34.30
2022-07-29T11:54:38.764Z,34.80
2022-07-29T11:57:22.873Z,35.30
2022-07-29T12:00:09.658Z,35.80
2022-07-29T12:02:43.044Z,36.20
2022-07-29T12:05:14.533Z,36.50
2022-07-29T12:07:45.404Z,36.60
2022-07-29T12:10:19.913Z,36.70
2022-07-29T12:12:56.555Z,36.80
2022-07-29T12:15:25.036Z,37.10
2022-07-29T12:18:24.251Z,37.30
2022-07-29T12:20:58.871Z,37.60
2022-07-29T12:23:34.632Z,37.80
2022-07-29T12:26:07.646Z,38.00
2022-07-29T12:28:39.737Z,38.10
2022-07-29T12:31:08.177Z,38.00
2022-07-29T12:33:36.066Z,38.00
2022-07-29T12:36:07.261Z,38.10
2022-07-29T12:38:36.878Z,38.30
2022-07-29T12:41:04.968Z,38.50
2022-07-29T12:43:32.155Z,38.40
2022-07-29T12:46:12.170Z,38.40
2022-07-29T12:48:44.770Z,38.50
2022-07-29T12:51:15.224Z,38.50
2022-07-29T12:53:42.429Z,38.60
2022-07-29T12:56:40.468Z,38.70
2022-07-29T12:59:14.467Z,38.70
2022-07-29T13:01:41.519Z,38.70
2022-07-29T13:04:08.397Z,38.60
2022-07-29T13:06:49.629Z,38.60
2022-07-29T13:09:20.256Z,38.70
2022-07-29T13:11:53.204Z,38.80
2022-07-29T13:14:40.854Z,38.50
2022-07-29T13:17:28.270Z,38.30
2022-07-29T13:20:09.741Z,38.10
2022-07-29T13:22:36.918Z,38.00
2022-07-29T13:25:03.890Z,38.00
2022-07-29T13:27:33.145Z,38.10
2022-07-29T13:30:01.724Z,38.10
2022-07-29T13:32:30.784Z,38.00
2022-07-29T13:34:58.819Z,38.00
2022-07-29T13:37:26.963Z,37.90
2022-07-29T13:39:55.011Z,37.80
2022-07-29T13:42:21.888Z,37.70
2022-07-29T13:44:51.751Z,37.40
2022-07-29T13:47:19.562Z,37.20
2022-07-29T13:49:46.476Z,37.20
2022-07-29T13:52:13.359Z,37.20
2022-07-29T13:54:42.409Z,37.20
2022-07-29T13:57:11.592Z,36.90
2022-07-29T13:59:40.144Z,36.80
2022-07-29T14:02:07.717Z,36.80
2022-07-29T14:04:34.857Z,36.60
2022-07-29T14:07:03.445Z,36.50
2022-07-29T14:09:41.457Z,36.30
2022-07-29T14:12:09.227Z,36.30
2022-07-29T14:14:37.356Z,36.30
2022-07-29T14:17:06.886Z,36.30
2022-07-29T14:19:36.461Z,36.30
2022-07-29T14:22:04.923Z,36.30
2022-07-29T14:24:32.331Z,36.40
2022-07-29T14:26:59.986Z,36.50
2022-07-29T14:29:37.016Z,36.30
2022-07-29T14:32:11.182Z,35.70
2022-07-29T14:34:38.813Z,34.80
2022-07-29T14:37:06.759Z,34.00
2022-07-29T14:39:38.167Z,33.50
2022-07-29T14:42:09.116Z,32.80
2022-07-29T14:44:36.075Z,32.20
2022-07-29T14:47:07.655Z,31.80
2022-07-29T14:49:34.953Z,31.70
2022-07-29T14:52:02.010Z,31.80
2022-07-29T14:54:28.889Z,31.70
2022-07-29T14:56:58.074Z,31.60
2022-07-29T14:59:25.450Z,31.80
2022-07-29T15:01:52.269Z,32.00
2022-07-29T15:04:19.077Z,32.00
2022-07-29T15:06:45.895Z,31.80
2022-07-29T15:09:12.852Z,31.40
2022-07-29T15:11:39.736Z,31.10
2022-07-29T15:14:07.185Z,30.80
2022-07-29T15:16:36.553Z,30.50
2022-07-29T15:19:04.182Z,30.30
2022-07-29T15:21:30.922Z,30.10
2022-07-29T15:23:57.732Z,30.00
2022-07-29T15:26:24.530Z,29.90
2022-07-29T15:28:51.360Z,30.10
2022-07-29T15:31:19.787Z,30.30
2022-07-29T15:33:46.638Z,30.60
2022-07-29T15:36:25.405Z,30.80
2022-07-29T15:39:00.351Z,30.80
2022-07-29T15:41:27.440Z,30.80
2022-07-29T15:43:54.238Z,30.80
2022-07-29T15:46:40.001Z,30.80
2022-07-29T15:49:07.964Z,30.80
2022-07-29T15:51:34.987Z,30.80
2022-07-29T15:54:03.596Z,30.70
2022-07-29T15:56:30.571Z,30.70
2022-07-29T15:58:57.888Z,30.70
2022-07-29T16:01:25.183Z,30.80
2022-07-29T16:03:52.067Z,30.90
2022-07-29T16:06:19.280Z,30.80
2022-07-29T16:08:46.309Z,30.80
2022-07-29T16:11:13.072Z,30.90
2022-07-29T16:13:39.824Z,30.90
2022-07-29T16:16:07.026Z,30.80
2022-07-29T16:18:34.683Z,30.80
2022-07-29T16:21:01.481Z,30.80
2022-07-29T16:23:28.219Z,30.80
2022-07-29T16:26:00.167Z,30.80
2022-07-29T16:28:28.748Z,30.70
2022-07-29T16:30:55.803Z,30.60
2022-07-29T16:33:23.533Z,30.70
2022-07-29T16:35:50.964Z,30.60
2022-07-29T16:38:18.034Z,30.60
2022-07-29T16:40:44.899Z,30.60
2022-07-29T16:43:11.682Z,30.60
2022-07-29T16:45:45.928Z,30.60
2022-07-29T16:48:18.823Z,30.60
2022-07-29T16:50:49.648Z,30.60
2022-07-29T16:53:16.789Z,30.50
2022-07-29T16:55:43.764Z,30.50
2022-07-29T16:58:11.349Z,30.50
2022-07-29T17:00:38.984Z,30.40
2022-07-29T17:03:05.874Z,30.50
2022-07-29T17:05:50.463Z,30.50
2022-07-29T17:08:20.111Z,30.50
2022-07-29T17:10:47.338Z,30.40
2022-07-29T17:13:14.509Z,30.40
2022-07-29T17:15:42.961Z,30.50
2022-07-29T17:18:12.433Z,30.40
2022-07-29T17:20:41.583Z,30.40
2022-07-29T17:23:08.502Z,30.30
2022-07-29T17:25:35.304Z,30.30
2022-07-29T17:28:02.175Z,30.20
2022-07-29T17:30:29.833Z,30.20
2022-07-29T17:32:56.652Z,30.10
2022-07-29T17:35:41.979Z,29.90
2022-07-29T17:38:08.776Z,29.80
2022-07-29T17:40:35.597Z,29.70
2022-07-29T17:43:02.428Z,29.60
2022-07-29T17:45:49.864Z,29.50
2022-07-29T17:48:16.218Z,29.50
2022-07-29T17:50:43.036Z,29.40
2022-07-29T17:53:15.703Z,29.20
2022-07-29T17:55:48.802Z,29.20
2022-07-29T17:58:16.101Z,29.00
2022-07-29T18:00:43.064Z,29.00
2022-07-29T18:03:10.272Z,29.00
2022-07-29T18:05:37.344Z,29.00
2022-07-29T18:08:04.426Z,29.00
2022-07-29T18:10:31.316Z,28.90
2022-07-29T18:12:58.285Z,28.80
2022-07-29T18:15:25.298Z,28.80
2022-07-29T18:17:57.167Z,28.70
2022-07-29T18:20:25.907Z,28.70
2022-07-29T18:22:53.220Z,28.70
2022-07-29T18:25:20.590Z,28.60
2022-07-29T18:27:47.548Z,28.60
2022-07-29T18:30:17.326Z,28.50
2022-07-29T18:32:59.261Z,28.40
2022-07-29T18:35:32.351Z,28.40
2022-07-29T18:38:00.782Z,28.30
2022-07-29T18:40:30.043Z,28.20
2022-07-29T18:42:56.907Z,28.10
2022-07-29T18:45:28.381Z,28.10
2022-07-29T18:47:56.501Z,28.00
2022-07-29T18:50:28.829Z,27.90
2022-07-29T18:52:58.460Z,27.80
2022-07-29T18:55:25.867Z,27.80
2022-07-29T18:57:56.382Z,27.70
2022-07-29T19:00:24.421Z,27.60
2022-07-29T19:02:52.472Z,27.50
2022-07-29T19:05:19.470Z,27.40
2022-07-29T19:07:46.475Z,27.40
2022-07-29T19:10:13.605Z,27.30
2022-07-29T19:12:40.675Z,27.20
2022-07-29T19:15:08.134Z,27.20
2022-07-29T19:17:34.931Z,27.20
2022-07-29T19:20:02.508Z,27.10
2022-07-29T19:22:29.616Z,27.00
2022-07-29T19:24:56.718Z,27.00
2022-07-29T19:27:24.466Z,26.90
2022-07-29T19:29:51.332Z,26.90
2022-07-29T19:32:25.066Z,26.80
2022-07-29T19:35:11.430Z,26.80
2022-07-29T19:37:38.559Z,26.70
2022-07-29T19:40:12.073Z,26.70
2022-07-29T19:42:39.279Z,26.60
2022-07-29T19:45:08.264Z,26.50
2022-07-29T19:47:35.676Z,26.50
2022-07-29T19:50:03.050Z,26.40
2022-07-29T19:52:29.897Z,26.40
2022-07-29T19:54:57.225Z,26.40
2022-07-29T19:57:24.364Z,26.30
2022-07-29T19:59:52.999Z,26.30
2022-07-29T20:02:20.066Z,26.30
2022-07-29T20:04:47.483Z,26.20
2022-07-29T20:07:14.550Z,26.20
2022-07-29T20:09:42.349Z,26.10
2022-07-29T20:12:09.993Z,26.10
2022-07-29T20:14:37.152Z,26.00
2022-07-29T20:17:04.905Z,26.00
2022-07-29T20:19:32.871Z,25.90
2022-07-29T20:21:59.710Z,25.90
2022-07-29T20:24:26.449Z,25.90
2022-07-29T20:26:53.371Z,25.90
2022-07-29T20:29:20.258Z,25.80
2022-07-29T20:31:52.226Z,25.80
2022-07-29T20:34:23.116Z,25.80
2022-07-29T20:36:49.914Z,25.80
2022-07-29T20:39:16.721Z,25.80
2022-07-29T20:41:46.035Z,25.70
2022-07-29T20:44:12.995Z,25.70
2022-07-29T20:46:39.848Z,25.70
2022-07-29T20:49:06.995Z,25.60
2022-07-29T20:51:43.702Z,25.60
2022-07-29T20:54:11.264Z,25.60
2022-07-29T20:56:38.629Z,25.50
2022-07-29T20:59:05.683Z,25.50
2022-07-29T21:01:32.767Z,25.50
2022-07-29T21:04:01.558Z,25.40
2022-07-29T21:06:28.857Z,25.40
2022-07-29T21:08:57.873Z,25.40
2022-07-29T21:11:44.443Z,25.40
2022-07-29T21:14:29.242Z,25.30
2022-07-29T21:16:56.790Z,25.30
2022-07-29T21:19:23.719Z,25.20
2022-07-29T21:21:51.029Z,25.20
2022-07-29T21:24:19.176Z,25.10
2022-07-29T21:26:50.749Z,25.10
2022-07-29T21:29:31.829Z,25.00
2022-07-29T21:31:58.780Z,25.00
2022-07-29T21:34:27.928Z,24.90
2022-07-29T21:36:54.680Z,24.90
2022-07-29T21:39:21.493Z,24.90
2022-07-29T21:41:48.654Z,24.80
2022-07-29T21:44:15.925Z,24.80
2022-07-29T21:46:42.734Z,24.70
2022-07-29T21:49:09.590Z,24.70
2022-07-29T21:51:36.527Z,24.70
2022-07-29T21:54:04.230Z,24.60
2022-07-29T21:56:31.499Z,24.60
2022-07-29T21:58:58.565Z,24.60
2022-07-29T22:01:25.586Z,24.60
2022-07-29T22:03:52.541Z,24.60
2022-07-29T22:06:19.711Z,24.50
2022-07-29T22:08:47.766Z,24.50
2022-07-29T22:11:14.689Z,24.50
2022-07-29T22:13:42.364Z,24.50
2022-07-29T22:16:10.226Z,24.40
2022-07-29T22:18:37.015Z,24.40
2022-07-29T22:21:03.996Z,24.40
2022-07-29T22:23:30.956Z,24.40
2022-07-29T22:26:00.693Z,24.40
2022-07-29T22:28:27.758Z,24.30
2022-07-29T22:30:54.726Z,24.30
2022-07-29T22:33:22.809Z,24.30
2022-07-29T22:35:49.880Z,24.30
2022-07-29T22:38:20.054Z,24.20
2022-07-29T22:40:48.700Z,24.20
2022-07-29T22:43:17.681Z,24.20
2022-07-29T22:45:44.646Z,24.10
2022-07-29T22:48:11.728Z,24.10
2022-07-29T22:50:39.101Z,24.10
2022-07-29T22:53:06.097Z,24.00
2022-07-29T22:55:33.014Z,24.00
2022-07-29T22:58:02.273Z,24.00
2022-07-29T23:00:31.799Z,23.90
2022-07-29T23:02:58.969Z,23.90
2022-07-29T23:05:26.156Z,23.80
2022-07-29T23:07:53.053Z,23.80
2022-07-29T23:10:20.572Z,23.80
2022-07-29T23:12:53.725Z,23.70
2022-07-29T23:15:20.923Z,23.60
2022-07-29T23:17:47.878Z,23.60
2022-07-29T23:20:15.937Z,23.60
2022-07-29T23:22:43.085Z,23.50
2022-07-29T23:25:12.737Z,23.50
2022-07-29T23:27:42.859Z,23.50
2022-07-29T23:30:13.083Z,23.50
2022-07-29T23:32:42.078Z,23.50
2022-07-29T23:35:12.711Z,23.40
2022-07-29T23:37:39.849Z,23.40
2022-07-29T23:40:12.167Z,23.30
2022-07-29T23:42:42.233Z,23.40
2022-07-29T23:45:18.763Z,23.40
2022-07-29T23:47:54.311Z,23.40
2022-07-29T23:50:24.263Z,23.30
2022-07-29T23:52:53.929Z,23.30
2022-07-29T23:55:36.372Z,23.30
2022-07-29T23:58:06.826Z,23.20
